sensor_id;sensor_type;location;lat;lon;timestamp;P1;durP1;ratioP1;P2;durP2;ratioP2
4210;SDS011;2119;48.828;12.396;2024-01-10T00:01:52;27.88;;;13.48;;
4210;SDS011;2119;48.828;12.396;2024-01-10T00:06:53;30.27;;;12.70;;
4210;SDS011;2119;48.828;12.396;2024-01-10T00:11:53;25.60;;;13.70;;
4210;SDS011;2119;48.828;12.396;2024-01-10T00:16:54;24.45;;;12.27;;
4210;SDS011;2119;48.828;12.396;2024-01-10T00:21:54;23.52;;;12.57;;
4210;SDS011;2119;48.828;12.396;2024-01-10T00:26:54;29.48;;;12.50;;
4210;SDS011;2119;48.828;12.396;2024-01-10T00:31:55;25.77;;;12.77;;
4210;SDS011;2119;48.828;12.396;2024-01-10T00:36:59;27.13;;;12.90;;
4210;SDS011;2119;48.828;12.396;2024-01-10T00:41:59;32.53;;;13.15;;
4210;SDS011;2119;48.828;12.396;2024-01-10T00:46:59;28.55;;;13.13;;
4210;SDS011;2119;48.828;12.396;2024-01-10T00:51:59;25.15;;;12.55;;
4210;SDS011;2119;48.828;12.396;2024-01-10T00:57:00;22.75;;;11.93;;
4210;SDS011;2119;48.828;12.396;2024-01-10T01:02:00;31.80;;;13.65;;
4210;SDS011;2119;48.828;12.396;2024-01-10T01:07:00;29.23;;;13.10;;
4210;SDS011;2119;48.828;12.396;2024-01-10T01:12:00;29.00;;;13.50;;
4210;SDS011;2119;48.828;12.396;2024-01-10T01:17:00;31.50;;;13.93;;
4210;SDS011;2119;48.828;12.396;2024-01-10T01:22:00;27.15;;;13.50;;
4210;SDS011;2119;48.828;12.396;2024-01-10T01:27:02;32.80;;;13.88;;
4210;SDS011;2119;48.828;12.396;2024-01-10T01:32:02;28.13;;;11.27;;
4210;SDS011;2119;48.828;12.396;2024-01-10T01:37:02;27.40;;;11.90;;
4210;SDS011;2119;48.828;12.396;2024-01-10T01:42:02;28.10;;;12.65;;
4210;SDS011;2119;48.828;12.396;2024-01-10T01:47:03;27.03;;;13.90;;
4210;SDS011;2119;48.828;12.396;2024-01-10T01:52:04;29.02;;;11.80;;
4210;SDS011;2119;48.828;12.396;2024-01-10T01:57:04;28.03;;;12.70;;
4210;SDS011;2119;48.828;12.396;2024-01-10T02:02:05;23.93;;;11.40;;
4210;SDS011;2119;48.828;12.396;2024-01-10T02:07:05;23.43;;;11.93;;
4210;SDS011;2119;48.828;12.396;2024-01-10T02:12:05;23.50;;;12.20;;
4210;SDS011;2119;48.828;12.396;2024-01-10T02:17:05;26.60;;;12.65;;
4210;SDS011;2119;48.828;12.396;2024-01-10T02:22:06;24.73;;;12.53;;
4210;SDS011;2119;48.828;12.396;2024-01-10T02:27:06;33.60;;;13.82;;
4210;SDS011;2119;48.828;12.396;2024-01-10T02:32:07;21.53;;;11.73;;
4210;SDS011;2119;48.828;12.396;2024-01-10T02:37:07;26.67;;;12.20;;
4210;SDS011;2119;48.828;12.396;2024-01-10T02:42:07;31.08;;;14.07;;
4210;SDS011;2119;48.828;12.396;2024-01-10T02:47:07;23.05;;;11.73;;
4210;SDS011;2119;48.828;12.396;2024-01-10T02:52:07;26.13;;;11.83;;
4210;SDS011;2119;48.828;12.396;2024-01-10T02:57:07;27.08;;;12.25;;
4210;SDS011;2119;48.828;12.396;2024-01-10T03:02:08;34.22;;;14.13;;
4210;SDS011;2119;48.828;12.396;2024-01-10T03:07:08;28.83;;;12.90;;
4210;SDS011;2119;48.828;12.396;2024-01-10T03:12:09;23.65;;;12.55;;
4210;SDS011;2119;48.828;12.396;2024-01-10T03:17:09;27.70;;;13.00;;
4210;SDS011;2119;48.828;12.396;2024-01-10T03:22:10;25.48;;;12.75;;
4210;SDS011;2119;48.828;12.396;2024-01-10T03:27:11;25.50;;;11.63;;
4210;SDS011;2119;48.828;12.396;2024-01-10T03:32:11;27.30;;;13.30;;
4210;SDS011;2119;48.828;12.396;2024-01-10T03:37:11;30.58;;;13.98;;
4210;SDS011;2119;48.828;12.396;2024-01-10T03:42:11;22.23;;;11.25;;
4210;SDS011;2119;48.828;12.396;2024-01-10T03:47:12;28.25;;;12.65;;
4210;SDS011;2119;48.828;12.396;2024-01-10T03:52:12;29.02;;;13.60;;
4210;SDS011;2119;48.828;12.396;2024-01-10T03:57:12;26.65;;;12.85;;
4210;SDS011;2119;48.828;12.396;2024-01-10T04:02:12;25.88;;;11.40;;
4210;SDS011;2119;48.828;12.396;2024-01-10T04:07:12;31.13;;;13.95;;
4210;SDS011;2119;48.828;12.396;2024-01-10T04:12:12;27.73;;;13.43;;
4210;SDS011;2119;48.828;12.396;2024-01-10T04:17:13;28.80;;;14.68;;
4210;SDS011;2119;48.828;12.396;2024-01-10T04:22:13;27.95;;;13.20;;
4210;SDS011;2119;48.828;12.396;2024-01-10T04:27:13;34.80;;;15.70;;
4210;SDS011;2119;48.828;12.396;2024-01-10T04:32:13;30.30;;;14.25;;
4210;SDS011;2119;48.828;12.396;2024-01-10T04:37:13;36.15;;;17.13;;
4210;SDS011;2119;48.828;12.396;2024-01-10T04:42:14;36.40;;;16.13;;
4210;SDS011;2119;48.828;12.396;2024-01-10T04:47:15;48.47;;;21.20;;
4210;SDS011;2119;48.828;12.396;2024-01-10T04:52:15;41.00;;;20.30;;
4210;SDS011;2119;48.828;12.396;2024-01-10T04:57:15;44.65;;;20.00;;
4210;SDS011;2119;48.828;12.396;2024-01-10T05:02:15;33.40;;;15.47;;
4210;SDS011;2119;48.828;12.396;2024-01-10T05:07:16;38.15;;;16.77;;
4210;SDS011;2119;48.828;12.396;2024-01-10T05:12:16;35.25;;;15.75;;
4210;SDS011;2119;48.828;12.396;2024-01-10T05:17:16;33.87;;;15.87;;
4210;SDS011;2119;48.828;12.396;2024-01-10T05:22:16;31.98;;;15.25;;
4210;SDS011;2119;48.828;12.396;2024-01-10T05:27:17;34.20;;;15.00;;
4210;SDS011;2119;48.828;12.396;2024-01-10T05:32:17;34.42;;;14.30;;
4210;SDS011;2119;48.828;12.396;2024-01-10T05:37:17;31.98;;;13.32;;
4210;SDS011;2119;48.828;12.396;2024-01-10T05:42:17;38.60;;;16.45;;
4210;SDS011;2119;48.828;12.396;2024-01-10T05:47:18;47.03;;;22.17;;
4210;SDS011;2119;48.828;12.396;2024-01-10T05:52:18;39.88;;;17.67;;
4210;SDS011;2119;48.828;12.396;2024-01-10T05:57:19;37.87;;;15.77;;
4210;SDS011;2119;48.828;12.396;2024-01-10T06:02:21;33.40;;;15.10;;
4210;SDS011;2119;48.828;12.396;2024-01-10T06:07:21;40.65;;;16.67;;
4210;SDS011;2119;48.828;12.396;2024-01-10T06:12:21;35.72;;;17.02;;
4210;SDS011;2119;48.828;12.396;2024-01-10T06:17:21;35.13;;;15.70;;
4210;SDS011;2119;48.828;12.396;2024-01-10T06:22:22;31.55;;;14.45;;
4210;SDS011;2119;48.828;12.396;2024-01-10T06:27:25;32.37;;;15.90;;
4210;SDS011;2119;48.828;12.396;2024-01-10T06:32:25;34.83;;;15.90;;
4210;SDS011;2119;48.828;12.396;2024-01-10T06:37:25;32.90;;;15.57;;
4210;SDS011;2119;48.828;12.396;2024-01-10T06:42:26;36.53;;;18.15;;
4210;SDS011;2119;48.828;12.396;2024-01-10T06:47:26;31.03;;;15.93;;
4210;SDS011;2119;48.828;12.396;2024-01-10T06:52:26;35.40;;;16.52;;
4210;SDS011;2119;48.828;12.396;2024-01-10T06:57:26;38.93;;;17.47;;
4210;SDS011;2119;48.828;12.396;2024-01-10T07:02:27;36.13;;;17.83;;
4210;SDS011;2119;48.828;12.396;2024-01-10T07:07:27;31.58;;;15.27;;
4210;SDS011;2119;48.828;12.396;2024-01-10T07:12:27;27.23;;;14.10;;
4210;SDS011;2119;48.828;12.396;2024-01-10T07:17:27;36.72;;;16.95;;
4210;SDS011;2119;48.828;12.396;2024-01-10T07:22:27;40.53;;;18.60;;
4210;SDS011;2119;48.828;12.396;2024-01-10T07:27:27;40.30;;;18.70;;
4210;SDS011;2119;48.828;12.396;2024-01-10T07:32:28;32.35;;;16.13;;
4210;SDS011;2119;48.828;12.396;2024-01-10T07:37:28;41.33;;;18.05;;
4210;SDS011;2119;48.828;12.396;2024-01-10T07:42:28;35.13;;;15.55;;
4210;SDS011;2119;48.828;12.396;2024-01-10T07:47:28;45.30;;;18.55;;
4210;SDS011;2119;48.828;12.396;2024-01-10T07:52:28;44.42;;;20.60;;
4210;SDS011;2119;48.828;12.396;2024-01-10T07:57:28;36.65;;;19.50;;
4210;SDS011;2119;48.828;12.396;2024-01-10T08:02:29;57.70;;;23.75;;
4210;SDS011;2119;48.828;12.396;2024-01-10T08:07:29;104.90;;;35.80;;
4210;SDS011;2119;48.828;12.396;2024-01-10T08:12:29;58.05;;;22.80;;
4210;SDS011;2119;48.828;12.396;2024-01-10T08:17:29;45.30;;;20.67;;
4210;SDS011;2119;48.828;12.396;2024-01-10T08:22:29;54.45;;;21.60;;
4210;SDS011;2119;48.828;12.396;2024-01-10T08:27:30;49.72;;;21.40;;
4210;SDS011;2119;48.828;12.396;2024-01-10T08:32:30;49.30;;;20.13;;
4210;SDS011;2119;48.828;12.396;2024-01-10T08:37:30;40.73;;;18.90;;
4210;SDS011;2119;48.828;12.396;2024-01-10T08:42:30;46.05;;;20.85;;
4210;SDS011;2119;48.828;12.396;2024-01-10T08:47:31;36.97;;;20.20;;
4210;SDS011;2119;48.828;12.396;2024-01-10T08:52:32;50.20;;;20.57;;
4210;SDS011;2119;48.828;12.396;2024-01-10T08:57:32;39.67;;;18.25;;
4210;SDS011;2119;48.828;12.396;2024-01-10T09:02:32;45.33;;;19.10;;
4210;SDS011;2119;48.828;12.396;2024-01-10T09:07:33;37.97;;;20.40;;
4210;SDS011;2119;48.828;12.396;2024-01-10T09:12:33;38.35;;;16.83;;
4210;SDS011;2119;48.828;12.396;2024-01-10T09:17:34;40.17;;;18.03;;
4210;SDS011;2119;48.828;12.396;2024-01-10T09:22:34;39.28;;;17.52;;
4210;SDS011;2119;48.828;12.396;2024-01-10T09:27:34;30.87;;;15.07;;
4210;SDS011;2119;48.828;12.396;2024-01-10T09:32:35;34.87;;;15.80;;
4210;SDS011;2119;48.828;12.396;2024-01-10T09:37:35;34.33;;;15.73;;
4210;SDS011;2119;48.828;12.396;2024-01-10T09:42:35;37.67;;;17.77;;
4210;SDS011;2119;48.828;12.396;2024-01-10T09:47:36;35.10;;;17.37;;
4210;SDS011;2119;48.828;12.396;2024-01-10T09:52:41;34.00;;;16.70;;
4210;SDS011;2119;48.828;12.396;2024-01-10T09:57:41;42.03;;;18.47;;
4210;SDS011;2119;48.828;12.396;2024-01-10T10:02:42;33.03;;;16.70;;
4210;SDS011;2119;48.828;12.396;2024-01-10T10:07:43;40.33;;;16.60;;
4210;SDS011;2119;48.828;12.396;2024-01-10T10:12:46;35.03;;;17.13;;
4210;SDS011;2119;48.828;12.396;2024-01-10T10:17:48;35.47;;;16.63;;
4210;SDS011;2119;48.828;12.396;2024-01-10T10:22:57;32.90;;;16.07;;
4210;SDS011;2119;48.828;12.396;2024-01-10T10:27:58;28.63;;;15.70;;
4210;SDS011;2119;48.828;12.396;2024-01-10T10:33:00;32.50;;;15.63;;
4210;SDS011;2119;48.828;12.396;2024-01-10T10:38:00;36.83;;;16.67;;
4210;SDS011;2119;48.828;12.396;2024-01-10T10:43:01;31.77;;;15.75;;
4210;SDS011;2119;48.828;12.396;2024-01-10T10:48:03;37.40;;;16.70;;
4210;SDS011;2119;48.828;12.396;2024-01-10T10:53:05;36.60;;;16.10;;
4210;SDS011;2119;48.828;12.396;2024-01-10T10:58:06;35.33;;;17.43;;
4210;SDS011;2119;48.828;12.396;2024-01-10T11:03:08;36.80;;;17.50;;
4210;SDS011;2119;48.828;12.396;2024-01-10T11:08:11;34.80;;;17.80;;
4210;SDS011;2119;48.828;12.396;2024-01-10T11:23:46;26.37;;;15.60;;
4210;SDS011;2119;48.828;12.396;2024-01-10T11:28:48;33.40;;;18.40;;
4210;SDS011;2119;48.828;12.396;2024-01-10T11:33:49;28.97;;;15.87;;
4210;SDS011;2119;48.828;12.396;2024-01-10T11:49:13;33.23;;;16.50;;
4210;SDS011;2119;48.828;12.396;2024-01-10T11:59:34;34.17;;;16.07;;
4210;SDS011;2119;48.828;12.396;2024-01-10T12:04:34;30.17;;;16.60;;
4210;SDS011;2119;48.828;12.396;2024-01-10T12:09:34;33.05;;;17.25;;
4210;SDS011;2119;48.828;12.396;2024-01-10T12:14:35;38.87;;;18.60;;
4210;SDS011;2119;48.828;12.396;2024-01-10T12:19:36;26.87;;;15.00;;
4210;SDS011;2119;48.828;12.396;2024-01-10T12:24:43;33.60;;;17.40;;
4210;SDS011;2119;48.828;12.396;2024-01-10T12:29:49;33.20;;;16.10;;
4210;SDS011;2119;48.828;12.396;2024-01-10T12:35:00;31.13;;;17.40;;
4210;SDS011;2119;48.828;12.396;2024-01-10T12:40:01;31.20;;;16.90;;
4210;SDS011;2119;48.828;12.396;2024-01-10T12:45:04;32.50;;;16.10;;
4210;SDS011;2119;48.828;12.396;2024-01-10T12:50:05;32.03;;;17.27;;
4210;SDS011;2119;48.828;12.396;2024-01-10T12:55:08;35.23;;;19.43;;
4210;SDS011;2119;48.828;12.396;2024-01-10T13:00:08;32.03;;;17.03;;
4210;SDS011;2119;48.828;12.396;2024-01-10T13:05:08;35.93;;;17.10;;
4210;SDS011;2119;48.828;12.396;2024-01-10T13:10:09;34.37;;;16.40;;
4210;SDS011;2119;48.828;12.396;2024-01-10T13:15:09;34.23;;;17.80;;
4210;SDS011;2119;48.828;12.396;2024-01-10T13:20:10;28.93;;;16.23;;
4210;SDS011;2119;48.828;12.396;2024-01-10T13:25:10;36.90;;;17.20;;
4210;SDS011;2119;48.828;12.396;2024-01-10T13:30:10;32.47;;;16.38;;
4210;SDS011;2119;48.828;12.396;2024-01-10T13:35:11;32.90;;;18.13;;
4210;SDS011;2119;48.828;12.396;2024-01-10T13:40:12;34.38;;;16.50;;
4210;SDS011;2119;48.828;12.396;2024-01-10T13:45:15;32.73;;;17.40;;
4210;SDS011;2119;48.828;12.396;2024-01-10T13:50:17;34.23;;;16.80;;
4210;SDS011;2119;48.828;12.396;2024-01-10T13:55:17;33.57;;;17.77;;
4210;SDS011;2119;48.828;12.396;2024-01-10T14:00:19;29.15;;;16.52;;
4210;SDS011;2119;48.828;12.396;2024-01-10T14:05:19;31.40;;;16.60;;
4210;SDS011;2119;48.828;12.396;2024-01-10T14:10:19;29.73;;;16.20;;
4210;SDS011;2119;48.828;12.396;2024-01-10T14:15:19;30.48;;;15.98;;
4210;SDS011;2119;48.828;12.396;2024-01-10T14:20:20;30.87;;;16.17;;
4210;SDS011;2119;48.828;12.396;2024-01-10T14:25:21;32.13;;;18.37;;
4210;SDS011;2119;48.828;12.396;2024-01-10T14:30:21;30.50;;;17.52;;
4210;SDS011;2119;48.828;12.396;2024-01-10T14:35:21;34.83;;;17.20;;
4210;SDS011;2119;48.828;12.396;2024-01-10T14:40:21;29.83;;;17.25;;
4210;SDS011;2119;48.828;12.396;2024-01-10T14:45:25;34.57;;;17.67;;
4210;SDS011;2119;48.828;12.396;2024-01-10T14:50:25;33.70;;;17.07;;
4210;SDS011;2119;48.828;12.396;2024-01-10T14:55:25;29.92;;;16.10;;
4210;SDS011;2119;48.828;12.396;2024-01-10T15:00:25;28.90;;;16.42;;
4210;SDS011;2119;48.828;12.396;2024-01-10T15:05:25;31.37;;;18.33;;
4210;SDS011;2119;48.828;12.396;2024-01-10T15:10:27;32.93;;;17.00;;
4210;SDS011;2119;48.828;12.396;2024-01-10T15:15:27;27.23;;;16.37;;
4210;SDS011;2119;48.828;12.396;2024-01-10T15:20:27;33.43;;;17.07;;
4210;SDS011;2119;48.828;12.396;2024-01-10T15:25:27;28.95;;;16.92;;
4210;SDS011;2119;48.828;12.396;2024-01-10T15:30:27;32.50;;;16.40;;
4210;SDS011;2119;48.828;12.396;2024-01-10T15:35:27;32.20;;;17.05;;
4210;SDS011;2119;48.828;12.396;2024-01-10T15:40:28;35.87;;;18.30;;
4210;SDS011;2119;48.828;12.396;2024-01-10T15:45:28;43.27;;;23.27;;
4210;SDS011;2119;48.828;12.396;2024-01-10T15:50:28;44.22;;;22.58;;
4210;SDS011;2119;48.828;12.396;2024-01-10T15:55:28;43.70;;;22.00;;
4210;SDS011;2119;48.828;12.396;2024-01-10T16:00:28;51.05;;;21.48;;
4210;SDS011;2119;48.828;12.396;2024-01-10T16:05:28;48.67;;;22.73;;
4210;SDS011;2119;48.828;12.396;2024-01-10T16:10:29;45.03;;;22.73;;
4210;SDS011;2119;48.828;12.396;2024-01-10T16:15:29;37.08;;;19.50;;
4210;SDS011;2119;48.828;12.396;2024-01-10T16:20:29;38.03;;;20.60;;
4210;SDS011;2119;48.828;12.396;2024-01-10T16:25:29;39.13;;;19.52;;
4210;SDS011;2119;48.828;12.396;2024-01-10T16:30:30;41.30;;;21.23;;
4210;SDS011;2119;48.828;12.396;2024-01-10T16:35:30;43.70;;;23.17;;
4210;SDS011;2119;48.828;12.396;2024-01-10T16:40:30;51.42;;;26.58;;
4210;SDS011;2119;48.828;12.396;2024-01-10T16:45:30;43.13;;;24.17;;
4210;SDS011;2119;48.828;12.396;2024-01-10T16:50:36;34.47;;;19.50;;
4210;SDS011;2119;48.828;12.396;2024-01-10T16:55:37;43.27;;;23.30;;
4210;SDS011;2119;48.828;12.396;2024-01-10T17:00:37;57.38;;;30.25;;
4210;SDS011;2119;48.828;12.396;2024-01-10T17:05:37;64.80;;;31.17;;
4210;SDS011;2119;48.828;12.396;2024-01-10T17:10:39;60.10;;;30.50;;
4210;SDS011;2119;48.828;12.396;2024-01-10T17:15:40;71.50;;;31.90;;
4210;SDS011;2119;48.828;12.396;2024-01-10T17:20:40;73.22;;;36.72;;
4210;SDS011;2119;48.828;12.396;2024-01-10T17:25:40;85.15;;;41.08;;
4210;SDS011;2119;48.828;12.396;2024-01-10T17:30:40;110.30;;;47.03;;
4210;SDS011;2119;48.828;12.396;2024-01-10T17:35:41;98.23;;;46.60;;
4210;SDS011;2119;48.828;12.396;2024-01-10T17:40:41;75.80;;;37.20;;
4210;SDS011;2119;48.828;12.396;2024-01-10T17:45:41;77.72;;;34.55;;
4210;SDS011;2119;48.828;12.396;2024-01-10T17:50:41;58.80;;;29.10;;
4210;SDS011;2119;48.828;12.396;2024-01-10T17:55:41;57.37;;;30.43;;
4210;SDS011;2119;48.828;12.396;2024-01-10T18:00:41;57.30;;;30.33;;
4210;SDS011;2119;48.828;12.396;2024-01-10T18:05:42;63.47;;;30.80;;
4210;SDS011;2119;48.828;12.396;2024-01-10T18:10:43;62.37;;;31.40;;
4210;SDS011;2119;48.828;12.396;2024-01-10T18:15:45;58.87;;;28.70;;
4210;SDS011;2119;48.828;12.396;2024-01-10T18:20:45;61.80;;;28.40;;
4210;SDS011;2119;48.828;12.396;2024-01-10T18:25:46;50.20;;;26.20;;
4210;SDS011;2119;48.828;12.396;2024-01-10T18:30:48;54.33;;;27.20;;
4210;SDS011;2119;48.828;12.396;2024-01-10T18:35:48;69.95;;;33.75;;
4210;SDS011;2119;48.828;12.396;2024-01-10T18:40:50;59.40;;;32.00;;
4210;SDS011;2119;48.828;12.396;2024-01-10T18:45:52;70.47;;;34.30;;
4210;SDS011;2119;48.828;12.396;2024-01-10T18:50:52;55.30;;;28.20;;
4210;SDS011;2119;48.828;12.396;2024-01-10T18:55:53;62.73;;;29.57;;
4210;SDS011;2119;48.828;12.396;2024-01-10T19:00:54;58.77;;;30.07;;
4210;SDS011;2119;48.828;12.396;2024-01-10T19:05:54;57.33;;;28.15;;
4210;SDS011;2119;48.828;12.396;2024-01-10T19:10:54;58.80;;;30.03;;
4210;SDS011;2119;48.828;12.396;2024-01-10T19:15:54;67.90;;;33.90;;
4210;SDS011;2119;48.828;12.396;2024-01-10T19:20:55;64.00;;;31.83;;
4210;SDS011;2119;48.828;12.396;2024-01-10T19:25:55;67.37;;;33.10;;
4210;SDS011;2119;48.828;12.396;2024-01-10T19:30:57;64.60;;;31.30;;
4210;SDS011;2119;48.828;12.396;2024-01-10T19:35:58;72.03;;;33.73;;
4210;SDS011;2119;48.828;12.396;2024-01-10T19:40:58;58.97;;;32.20;;
4210;SDS011;2119;48.828;12.396;2024-01-10T19:45:58;68.03;;;34.83;;
4210;SDS011;2119;48.828;12.396;2024-01-10T19:50:58;68.13;;;34.77;;
4210;SDS011;2119;48.828;12.396;2024-01-10T19:55:59;68.10;;;35.23;;
4210;SDS011;2119;48.828;12.396;2024-01-10T20:01:02;71.53;;;35.70;;
4210;SDS011;2119;48.828;12.396;2024-01-10T20:06:02;70.70;;;35.42;;
4210;SDS011;2119;48.828;12.396;2024-01-10T20:11:02;78.63;;;36.00;;
4210;SDS011;2119;48.828;12.396;2024-01-10T20:16:03;70.30;;;37.28;;
4210;SDS011;2119;48.828;12.396;2024-01-10T20:21:04;80.37;;;37.40;;
4210;SDS011;2119;48.828;12.396;2024-01-10T20:26:05;73.33;;;35.63;;
4210;SDS011;2119;48.828;12.396;2024-01-10T20:31:05;73.47;;;35.07;;
4210;SDS011;2119;48.828;12.396;2024-01-10T20:36:06;64.77;;;30.47;;
4210;SDS011;2119;48.828;12.396;2024-01-10T20:41:07;67.38;;;32.00;;
4210;SDS011;2119;48.828;12.396;2024-01-10T20:46:07;57.38;;;27.38;;
4210;SDS011;2119;48.828;12.396;2024-01-10T20:51:07;65.97;;;30.33;;
4210;SDS011;2119;48.828;12.396;2024-01-10T20:56:07;73.00;;;34.80;;
4210;SDS011;2119;48.828;12.396;2024-01-10T21:01:07;72.65;;;35.50;;
4210;SDS011;2119;48.828;12.396;2024-01-10T21:06:09;78.80;;;37.17;;
4210;SDS011;2119;48.828;12.396;2024-01-10T21:11:09;73.50;;;33.77;;
4210;SDS011;2119;48.828;12.396;2024-01-10T21:16:09;75.22;;;36.17;;
4210;SDS011;2119;48.828;12.396;2024-01-10T21:21:09;67.68;;;31.90;;
4210;SDS011;2119;48.828;12.396;2024-01-10T21:26:10;75.03;;;38.10;;
4210;SDS011;2119;48.828;12.396;2024-01-10T21:31:10;66.35;;;34.20;;
4210;SDS011;2119;48.828;12.396;2024-01-10T21:36:10;72.70;;;34.63;;
4210;SDS011;2119;48.828;12.396;2024-01-10T21:41:10;86.57;;;37.70;;
4210;SDS011;2119;48.828;12.396;2024-01-10T21:46:11;71.57;;;34.65;;
4210;SDS011;2119;48.828;12.396;2024-01-10T21:51:12;73.47;;;35.90;;
4210;SDS011;2119;48.828;12.396;2024-01-10T21:56:12;61.95;;;32.45;;
4210;SDS011;2119;48.828;12.396;2024-01-10T22:01:13;66.37;;;31.87;;
4210;SDS011;2119;48.828;12.396;2024-01-10T22:06:13;61.93;;;29.87;;
4210;SDS011;2119;48.828;12.396;2024-01-10T22:11:14;58.67;;;29.00;;
4210;SDS011;2119;48.828;12.396;2024-01-10T22:16:14;56.95;;;29.65;;
4210;SDS011;2119;48.828;12.396;2024-01-10T22:21:14;55.22;;;27.58;;
4210;SDS011;2119;48.828;12.396;2024-01-10T22:26:14;52.50;;;28.42;;
4210;SDS011;2119;48.828;12.396;2024-01-10T22:31:14;49.25;;;26.17;;
4210;SDS011;2119;48.828;12.396;2024-01-10T22:36:14;48.35;;;25.33;;
4210;SDS011;2119;48.828;12.396;2024-01-10T22:41:15;61.42;;;29.55;;
4210;SDS011;2119;48.828;12.396;2024-01-10T22:46:15;51.30;;;25.40;;
4210;SDS011;2119;48.828;12.396;2024-01-10T22:51:16;41.80;;;21.70;;
4210;SDS011;2119;48.828;12.396;2024-01-10T22:56:17;48.65;;;23.70;;
4210;SDS011;2119;48.828;12.396;2024-01-10T23:01:17;53.95;;;24.38;;
4210;SDS011;2119;48.828;12.396;2024-01-10T23:06:18;47.53;;;22.90;;
4210;SDS011;2119;48.828;12.396;2024-01-10T23:11:18;50.03;;;21.83;;
4210;SDS011;2119;48.828;12.396;2024-01-10T23:16:19;48.80;;;24.50;;
4210;SDS011;2119;48.828;12.396;2024-01-10T23:21:19;47.15;;;23.63;;
4210;SDS011;2119;48.828;12.396;2024-01-10T23:26:19;45.67;;;22.47;;
4210;SDS011;2119;48.828;12.396;2024-01-10T23:31:20;45.88;;;23.80;;
4210;SDS011;2119;48.828;12.396;2024-01-10T23:36:20;45.25;;;23.77;;
4210;SDS011;2119;48.828;12.396;2024-01-10T23:41:20;50.00;;;23.88;;
4210;SDS011;2119;48.828;12.396;2024-01-10T23:46:20;58.75;;;22.92;;
4210;SDS011;2119;48.828;12.396;2024-01-10T23:51:21;67.93;;;26.90;;
4210;SDS011;2119;48.828;12.396;2024-01-10T23:56:21;55.47;;;24.70;;
